createdAt,value
2019-06-07T00:00:51.924Z,5.80
2019-06-07T00:03:28.949Z,7.53
2019-06-07T00:05:52.866Z,8.08
2019-06-07T00:08:28.657Z,6.07
2019-06-07T00:10:53.829Z,8.88
2019-06-07T00:13:23.524Z,5.13
2019-06-07T00:15:53.435Z,6.10
2019-06-07T00:18:25.865Z,6.17
2019-06-07T00:20:54.795Z,8.78
2019-06-07T00:23:24.424Z,6.60
2019-06-07T00:25:54.130Z,6.58
2019-06-07T00:28:24.057Z,8.15
2019-06-07T00:30:53.658Z,5.25
2019-06-07T00:33:25.183Z,6.03
2019-06-07T00:35:55.175Z,7.47
2019-06-07T00:38:24.914Z,6.17
2019-06-07T00:40:54.572Z,6.55
2019-06-07T00:43:28.194Z,7.10
2019-06-07T00:45:55.983Z,5.75
2019-06-07T00:48:31.957Z,7.93
2019-06-07T00:50:57.736Z,10.72
2019-06-07T00:53:32.235Z,10.03
2019-06-07T00:55:58.889Z,7.10
2019-06-07T00:58:29.515Z,8.10
2019-06-07T01:00:59.291Z,6.80
2019-06-07T01:03:29.464Z,6.37
2019-06-07T01:05:59.191Z,6.47
2019-06-07T01:08:30.274Z,7.67
2019-06-07T01:10:59.955Z,6.50
2019-06-07T01:13:29.512Z,6.87
2019-06-07T01:15:59.165Z,6.50
2019-06-07T01:18:41.036Z,6.70
2019-06-07T01:21:00.020Z,6.60
2019-06-07T01:26:01.354Z,7.75
2019-06-07T01:28:30.992Z,7.28
2019-06-07T01:31:00.566Z,7.67
2019-06-07T01:33:49.805Z,5.93
2019-06-07T01:36:01.491Z,6.97
2019-06-07T01:38:31.139Z,6.47
2019-06-07T01:41:00.712Z,7.28
2019-06-07T01:43:31.093Z,8.47
2019-06-07T01:46:01.399Z,9.65
2019-06-07T01:48:48.477Z,6.85
2019-06-07T01:51:02.338Z,10.23
2019-06-07T01:53:32.018Z,7.17
2019-06-07T01:56:01.756Z,6.25
2019-06-07T01:58:31.325Z,7.57
2019-06-07T02:01:02.730Z,7.83
2019-06-07T02:03:33.508Z,7.10
2019-06-07T02:06:03.503Z,6.47
2019-06-07T02:08:34.323Z,7.17
2019-06-07T02:11:04.044Z,6.95
2019-06-07T02:13:33.595Z,6.53
2019-06-07T02:16:03.296Z,7.20
2019-06-07T02:18:34.836Z,6.80
2019-06-07T02:21:04.112Z,7.12
2019-06-07T02:23:33.904Z,7.20
2019-06-07T02:26:03.753Z,7.63
2019-06-07T02:28:44.754Z,6.97
2019-06-07T02:31:04.603Z,9.18
2019-06-07T02:33:40.035Z,7.93
2019-06-07T02:36:05.605Z,8.57
2019-06-07T02:38:37.511Z,8.33
2019-06-07T02:41:06.800Z,7.30
2019-06-07T02:43:37.254Z,7.67
2019-06-07T02:46:25.356Z,7.70
2019-06-07T02:48:43.126Z,6.78
2019-06-07T02:51:12.706Z,9.23
2019-06-07T02:53:42.332Z,8.77
2019-06-07T02:56:37.725Z,7.37
2019-06-07T02:58:43.235Z,9.73
2019-06-07T03:01:13.112Z,7.57
2019-06-07T03:03:42.902Z,7.83
2019-06-07T03:06:14.513Z,7.23
2019-06-07T03:08:47.274Z,8.73
2019-06-07T03:11:17.258Z,7.30
2019-06-07T03:13:48.347Z,7.70
2019-06-07T03:16:20.187Z,7.75
2019-06-07T03:18:54.234Z,7.33
2019-06-07T03:21:28.131Z,7.37
2019-06-07T03:24:02.604Z,6.35
2019-06-07T03:26:35.749Z,8.63
2019-06-07T03:29:03.820Z,6.33
2019-06-07T03:31:43.385Z,6.57
2019-06-07T03:34:05.000Z,6.95
2019-06-07T03:36:38.711Z,6.67
2019-06-07T03:39:06.886Z,9.73
2019-06-07T03:41:49.979Z,6.70
2019-06-07T03:44:07.879Z,7.80
2019-06-07T03:46:41.163Z,6.20
2019-06-07T03:49:09.057Z,6.60
2019-06-07T03:51:40.592Z,8.43
2019-06-07T03:54:09.907Z,6.63
2019-06-07T03:56:41.032Z,7.20
2019-06-07T03:59:10.897Z,6.70
2019-06-07T04:01:41.247Z,6.77
2019-06-07T04:04:11.161Z,6.80
2019-06-07T04:06:42.389Z,8.00
2019-06-07T04:09:12.072Z,8.25
2019-06-07T04:11:41.702Z,9.10
2019-06-07T04:14:11.520Z,8.20
2019-06-07T04:16:44.583Z,7.47
2019-06-07T04:19:12.630Z,7.67
2019-06-07T04:21:43.120Z,9.48
2019-06-07T04:24:12.737Z,9.80
2019-06-07T04:26:43.760Z,7.77
2019-06-07T04:31:45.678Z,11.97
2019-06-07T04:34:15.349Z,9.50
2019-06-07T04:36:58.752Z,9.20
2019-06-07T04:39:20.792Z,9.70
2019-06-07T04:41:52.310Z,8.90
2019-06-07T04:44:24.063Z,10.80
2019-06-07T04:46:57.039Z,9.48
2019-06-07T04:49:26.830Z,10.10
2019-06-07T04:51:57.904Z,9.98
2019-06-07T04:54:27.537Z,11.50
2019-06-07T04:56:57.315Z,9.88
2019-06-07T05:00:04.193Z,11.50
2019-06-07T05:01:58.609Z,10.93
2019-06-07T05:04:28.936Z,13.00
2019-06-07T05:06:59.572Z,12.82
2019-06-07T05:09:30.149Z,12.75
2019-06-07T05:11:59.753Z,14.47
2019-06-07T05:14:32.538Z,15.30
2019-06-07T05:17:01.571Z,18.67
2019-06-07T05:19:35.174Z,17.02
2019-06-07T05:22:04.917Z,17.65
2019-06-07T05:24:38.485Z,17.80
2019-06-07T05:27:05.955Z,16.53
2019-06-07T05:29:38.373Z,17.60
2019-06-07T05:32:07.298Z,20.75
2019-06-07T05:34:39.199Z,18.80
2019-06-07T05:37:12.049Z,20.13
2019-06-07T05:39:42.586Z,24.37
2019-06-07T05:42:11.145Z,21.73
2019-06-07T05:44:44.069Z,21.77
2019-06-07T05:47:12.137Z,23.93
2019-06-07T05:49:46.223Z,23.70
2019-06-07T05:52:13.104Z,20.23
2019-06-07T05:54:45.363Z,20.90
2019-06-07T05:57:14.012Z,21.00
2019-06-07T05:59:46.827Z,23.30
2019-06-07T06:02:22.512Z,26.27
2019-06-07T06:04:49.139Z,19.32
2019-06-07T06:07:17.597Z,21.70
2019-06-07T06:09:47.695Z,19.93
2019-06-07T06:12:34.184Z,21.30
2019-06-07T06:14:48.975Z,19.17
2019-06-07T06:17:18.752Z,19.90
2019-06-07T06:19:52.532Z,19.02
2019-06-07T06:22:19.592Z,20.27
2019-06-07T06:25:29.733Z,21.90
2019-06-07T06:28:02.748Z,17.83
2019-06-07T06:29:52.507Z,19.90
2019-06-07T06:34:55.639Z,18.57
2019-06-07T06:37:24.701Z,18.67
2019-06-07T06:39:54.315Z,19.82
2019-06-07T06:42:24.135Z,17.13
2019-06-07T06:44:54.295Z,15.98
2019-06-07T06:47:23.986Z,16.70
2019-06-07T06:49:54.366Z,20.03
2019-06-07T06:52:24.303Z,15.63
2019-06-07T06:55:00.564Z,15.60
2019-06-07T06:57:25.203Z,15.60
2019-06-07T06:59:54.777Z,16.02
2019-06-07T07:02:24.391Z,14.55
2019-06-07T07:04:54.275Z,18.50
2019-06-07T07:07:26.085Z,16.47
2019-06-07T07:09:59.241Z,16.48
2019-06-07T07:12:28.077Z,14.60
2019-06-07T07:14:57.682Z,15.72
2019-06-07T07:17:47.857Z,11.67
2019-06-07T07:19:58.536Z,13.13
2019-06-07T07:22:28.110Z,10.57
2019-06-07T07:24:57.702Z,12.93
2019-06-07T07:27:27.287Z,14.25
2019-06-07T07:30:34.998Z,11.75
2019-06-07T07:32:28.198Z,11.20
2019-06-07T07:35:00.542Z,17.07
2019-06-07T07:37:29.349Z,11.50
2019-06-07T07:40:09.487Z,10.50
2019-06-07T07:42:30.196Z,11.70
2019-06-07T07:44:59.771Z,8.88
2019-06-07T07:47:29.341Z,9.93
2019-06-07T07:49:59.278Z,9.45
2019-06-07T07:52:29.130Z,10.27
2019-06-07T07:54:58.679Z,8.03
2019-06-07T07:57:28.973Z,10.17
2019-06-07T08:00:25.690Z,7.10
2019-06-07T08:02:29.875Z,8.33
2019-06-07T08:05:21.405Z,6.50
2019-06-07T08:07:30.781Z,6.70
2019-06-07T08:10:03.890Z,5.12
2019-06-07T08:12:54.751Z,6.43
2019-06-07T08:15:03.973Z,5.77
2019-06-07T08:17:33.756Z,5.87
2019-06-07T08:20:04.264Z,6.17
2019-06-07T08:22:33.848Z,5.47
2019-06-07T08:25:04.868Z,6.17
2019-06-07T08:27:34.554Z,6.40
2019-06-07T08:30:35.095Z,4.80
2019-06-07T08:32:38.348Z,4.80
2019-06-07T08:35:08.774Z,5.37
2019-06-07T08:38:14.839Z,4.13
2019-06-07T08:40:10.737Z,6.57
2019-06-07T08:42:59.712Z,4.10
2019-06-07T08:45:13.573Z,4.40
2019-06-07T08:47:43.474Z,5.80
2019-06-07T08:50:14.800Z,3.93
2019-06-07T08:52:44.448Z,7.10
2019-06-07T08:55:14.619Z,5.53
2019-06-07T08:57:44.301Z,6.10
2019-06-07T09:00:43.041Z,3.90
2019-06-07T09:02:46.187Z,5.00
2019-06-07T09:05:16.206Z,5.73
2019-06-07T09:07:47.533Z,6.20
2019-06-07T09:10:17.867Z,4.23
2019-06-07T09:12:47.659Z,4.10
2019-06-07T09:15:23.134Z,3.00
2019-06-07T09:18:34.715Z,5.73
2019-06-07T09:20:36.428Z,4.13
2019-06-07T09:22:59.120Z,4.00
2019-06-07T09:25:24.777Z,3.37
2019-06-07T09:28:00.674Z,4.10
2019-06-07T09:30:40.307Z,5.50
2019-06-07T09:33:10.577Z,3.40
2019-06-07T09:35:40.913Z,5.50
2019-06-07T09:38:23.665Z,4.73
2019-06-07T09:40:41.930Z,4.10
2019-06-07T09:45:42.895Z,3.40
2019-06-07T09:48:16.556Z,5.10
2019-06-07T09:50:44.773Z,3.23
2019-06-07T09:53:22.483Z,3.23
2019-06-07T09:55:46.218Z,3.33
2019-06-07T09:58:50.434Z,3.60
2019-06-07T10:00:47.555Z,3.80
2019-06-07T10:03:21.814Z,4.47
2019-06-07T10:05:48.719Z,3.63
2019-06-07T10:09:26.295Z,3.83
2019-06-07T10:10:49.651Z,3.90
2019-06-07T10:13:19.246Z,3.50
2019-06-07T10:15:48.805Z,3.43
2019-06-07T10:18:18.451Z,3.10
2019-06-07T10:20:48.033Z,7.30
2019-06-07T10:23:17.615Z,3.17
2019-06-07T10:25:47.549Z,5.00
2019-06-07T10:28:17.153Z,3.00
2019-06-07T10:30:47.683Z,4.10
2019-06-07T10:33:17.323Z,5.17
2019-06-07T10:35:47.589Z,4.70
2019-06-07T10:38:17.255Z,5.93
2019-06-07T10:40:47.623Z,3.83
2019-06-07T10:43:17.227Z,4.47
2019-06-07T10:45:47.654Z,3.53
2019-06-07T10:48:17.221Z,3.20
2019-06-07T10:50:47.675Z,3.40
2019-06-07T10:53:17.235Z,5.00
2019-06-07T10:55:47.640Z,4.70
2019-06-07T10:58:17.221Z,4.53
2019-06-07T11:00:48.535Z,3.90
2019-06-07T11:03:18.096Z,3.37
2019-06-07T11:05:47.832Z,4.00
2019-06-07T11:08:17.422Z,3.13
2019-06-07T11:10:47.599Z,4.47
2019-06-07T11:13:17.199Z,3.27
2019-06-07T11:15:47.632Z,3.20
2019-06-07T11:18:18.899Z,4.43
2019-06-07T11:20:48.618Z,3.70
2019-06-07T11:23:18.621Z,3.70
2019-06-07T11:25:48.180Z,4.00
2019-06-07T11:28:18.706Z,3.73
2019-06-07T11:30:48.879Z,5.13
2019-06-07T11:33:18.866Z,2.93
2019-06-07T11:35:48.741Z,4.65
2019-06-07T11:38:18.798Z,2.73
2019-06-07T11:40:48.355Z,2.83
2019-06-07T11:43:19.069Z,4.07
2019-06-07T11:45:48.706Z,3.27
2019-06-07T11:48:18.293Z,2.93
2019-06-07T11:50:47.855Z,3.77
2019-06-07T11:53:19.809Z,3.43
2019-06-07T11:55:48.810Z,4.47
2019-06-07T11:58:21.610Z,3.63
2019-06-07T12:00:49.655Z,4.33
2019-06-07T12:03:19.288Z,2.23
2019-06-07T12:05:48.862Z,2.70
2019-06-07T12:08:18.769Z,3.97
2019-06-07T12:10:48.877Z,4.70
2019-06-07T12:13:18.999Z,2.20
2019-06-07T12:15:49.230Z,3.73
2019-06-07T12:18:19.675Z,3.43
2019-06-07T12:20:49.428Z,4.20
2019-06-07T12:23:20.143Z,2.53
2019-06-07T12:25:49.893Z,2.17
2019-06-07T12:28:20.910Z,4.60
2019-06-07T12:30:50.538Z,2.13
2019-06-07T12:33:20.115Z,3.07
2019-06-07T12:35:49.684Z,2.97
2019-06-07T12:38:21.475Z,3.33
2019-06-07T12:40:57.743Z,1.95
2019-06-07T12:43:23.573Z,5.20
2019-06-07T12:45:53.324Z,2.00
2019-06-07T12:48:25.936Z,2.37
2019-06-07T12:50:54.356Z,2.55
2019-06-07T12:53:27.648Z,5.40
2019-06-07T12:55:55.248Z,3.27
2019-06-07T12:58:33.677Z,4.33
2019-06-07T13:00:59.498Z,5.17
2019-06-07T13:03:27.591Z,2.90
2019-06-07T13:05:57.161Z,2.20
2019-06-07T13:08:28.209Z,4.47
2019-06-07T13:11:14.066Z,4.35
2019-06-07T13:13:29.285Z,5.17
2019-06-07T13:15:58.844Z,4.17
2019-06-07T13:18:28.690Z,5.00
2019-06-07T13:20:58.349Z,3.40
2019-06-07T13:23:28.972Z,2.97
2019-06-07T13:25:58.695Z,5.72
2019-06-07T13:28:28.971Z,2.87
2019-06-07T13:30:58.627Z,4.58
2019-06-07T13:33:35.341Z,3.50
2019-06-07T13:35:59.468Z,3.13
2019-06-07T13:38:29.353Z,2.47
2019-06-07T13:40:58.979Z,3.45
2019-06-07T13:43:28.618Z,6.53
2019-06-07T13:45:58.271Z,3.50
2019-06-07T13:48:28.068Z,2.47
2019-06-07T13:50:57.710Z,2.27
2019-06-07T13:53:27.271Z,5.30
2019-06-07T13:55:56.853Z,3.83
2019-06-07T13:58:26.595Z,4.40
2019-06-07T14:00:56.463Z,2.83
2019-06-07T14:03:29.278Z,2.73
2019-06-07T14:05:57.291Z,5.27
2019-06-07T14:08:27.287Z,4.30
2019-06-07T14:10:56.976Z,3.10
2019-06-07T14:13:27.986Z,2.43
2019-06-07T14:15:57.697Z,3.43
2019-06-07T14:18:28.732Z,3.90
2019-06-07T14:20:59.071Z,4.07
2019-06-07T14:23:47.363Z,2.97
2019-06-07T14:26:00.154Z,3.33
2019-06-07T14:28:32.232Z,3.02
2019-06-07T14:31:01.428Z,2.75
2019-06-07T14:33:32.510Z,3.20
2019-06-07T14:36:02.398Z,2.55
2019-06-07T14:38:35.442Z,3.60
2019-06-07T14:41:03.402Z,2.33
2019-06-07T14:43:34.116Z,2.20
2019-06-07T14:46:03.998Z,3.33
2019-06-07T14:48:34.590Z,5.20
2019-06-07T14:51:04.229Z,2.37
2019-06-07T14:53:35.071Z,2.63
2019-06-07T14:56:04.943Z,4.03
2019-06-07T14:58:42.538Z,2.97
2019-06-07T15:01:05.932Z,3.03
2019-06-07T15:03:35.564Z,4.07
2019-06-07T15:06:05.222Z,3.73
2019-06-07T15:08:34.977Z,5.23
2019-06-07T15:11:04.742Z,4.65
2019-06-07T15:13:35.743Z,4.63
2019-06-07T15:16:05.494Z,5.03
2019-06-07T15:18:36.102Z,3.73
2019-06-07T15:21:05.876Z,2.70
2019-06-07T15:23:35.429Z,2.90
2019-06-07T15:26:05.165Z,6.90
2019-06-07T15:28:36.753Z,3.37
2019-06-07T15:31:06.030Z,4.50
2019-06-07T15:33:36.507Z,4.67
2019-06-07T15:36:06.305Z,3.10
2019-06-07T15:38:37.173Z,3.07
2019-06-07T15:41:06.947Z,4.23
2019-06-07T15:43:37.465Z,2.37
2019-06-07T15:46:07.201Z,2.63
2019-06-07T15:48:38.175Z,3.43
2019-06-07T15:51:07.968Z,4.30
2019-06-07T15:53:42.636Z,3.87
2019-06-07T15:56:08.810Z,3.83
2019-06-07T15:58:39.383Z,2.80
2019-06-07T16:01:09.107Z,3.93
2019-06-07T16:03:39.859Z,3.90
2019-06-07T16:06:09.588Z,5.30
2019-06-07T16:08:40.382Z,6.13
2019-06-07T16:11:10.089Z,4.17
2019-06-07T16:13:40.813Z,2.07
2019-06-07T16:16:10.704Z,4.33
2019-06-07T16:18:41.573Z,2.07
2019-06-07T16:21:11.537Z,5.20
2019-06-07T16:23:42.108Z,8.07
2019-06-07T16:26:11.882Z,1.30
2019-06-07T16:28:42.548Z,1.50
2019-06-07T16:31:12.220Z,2.97
2019-06-07T16:33:43.051Z,4.67
2019-06-07T16:36:12.910Z,4.47
2019-06-07T16:38:42.509Z,2.83
2019-06-07T16:41:12.132Z,2.37
2019-06-07T16:43:42.654Z,2.13
2019-06-07T16:46:12.363Z,1.63
2019-06-07T16:48:42.943Z,3.00
2019-06-07T16:51:12.570Z,10.40
2019-06-07T16:53:42.427Z,4.43
2019-06-07T16:56:12.141Z,2.40
2019-06-07T16:58:42.336Z,3.00
2019-06-07T17:01:12.006Z,2.13
2019-06-07T17:03:41.616Z,1.10
2019-06-07T17:06:11.300Z,2.60
2019-06-07T17:08:42.145Z,0.63
2019-06-07T17:11:11.805Z,1.87
2019-06-07T17:13:42.346Z,2.03
2019-06-07T17:16:11.995Z,2.47
2019-06-07T17:18:42.948Z,0.70
2019-06-07T17:21:12.623Z,1.20
2019-06-07T17:23:43.684Z,1.90
2019-06-07T17:26:13.516Z,1.93
2019-06-07T17:28:43.656Z,1.00
2019-06-07T17:31:13.359Z,1.93
2019-06-07T17:33:43.942Z,1.27
2019-06-07T17:36:13.729Z,0.77
2019-06-07T17:38:44.451Z,3.93
2019-06-07T17:41:14.048Z,3.40
2019-06-07T17:43:52.091Z,3.37
2019-06-07T17:46:15.056Z,4.90
2019-06-07T17:48:45.577Z,1.00
2019-06-07T17:51:15.276Z,2.53
2019-06-07T17:53:45.855Z,2.20
2019-06-07T17:56:15.417Z,1.20
2019-06-07T17:58:46.053Z,1.87
2019-06-07T18:01:15.951Z,1.50
2019-06-07T18:03:46.719Z,1.70
2019-06-07T18:06:17.740Z,2.17
2019-06-07T18:08:49.528Z,2.20
2019-06-07T18:11:19.105Z,1.33
2019-06-07T18:14:05.099Z,1.10
2019-06-07T18:16:20.029Z,1.30
2019-06-07T18:18:50.680Z,1.10
2019-06-07T18:21:20.223Z,1.40
2019-06-07T18:23:50.319Z,1.20
2019-06-07T18:26:19.933Z,1.10
2019-06-07T18:28:50.589Z,1.80
2019-06-07T18:31:20.232Z,1.97
2019-06-07T18:33:50.926Z,2.40
2019-06-07T18:36:20.494Z,2.93
2019-06-07T18:38:50.899Z,2.95
2019-06-07T18:41:20.509Z,1.17
2019-06-07T18:43:51.137Z,2.30
2019-06-07T18:46:20.773Z,1.77
2019-06-07T18:48:50.609Z,4.30
2019-06-07T18:51:20.242Z,1.83
2019-06-07T18:53:49.846Z,1.33
2019-06-07T18:56:19.403Z,1.20
2019-06-07T18:58:49.170Z,1.23
2019-06-07T19:01:18.996Z,2.80
2019-06-07T19:03:50.190Z,2.07
2019-06-07T19:06:19.807Z,1.83
2019-06-07T19:08:53.122Z,2.33
2019-06-07T19:11:20.696Z,1.63
2019-06-07T19:13:50.944Z,2.40
2019-06-07T19:16:20.778Z,1.30
2019-06-07T19:18:51.711Z,2.47
2019-06-07T19:21:21.313Z,2.57
2019-06-07T19:23:51.759Z,1.53
2019-06-07T19:26:21.414Z,3.57
2019-06-07T19:28:51.077Z,4.50
2019-06-07T19:31:20.661Z,2.50
2019-06-07T19:33:51.037Z,3.00
2019-06-07T19:36:20.585Z,1.97
2019-06-07T19:38:51.703Z,2.60
2019-06-07T19:41:21.334Z,0.97
2019-06-07T19:43:52.069Z,1.27
2019-06-07T19:46:21.739Z,1.77
2019-06-07T19:48:52.494Z,2.00
2019-06-07T19:51:22.232Z,1.60
2019-06-07T19:53:52.919Z,1.40
2019-06-07T19:56:22.612Z,1.80
2019-06-07T19:58:53.399Z,2.40
2019-06-07T20:01:23.053Z,2.00
2019-06-07T20:03:53.811Z,1.30
2019-06-07T20:06:23.546Z,2.00
2019-06-07T20:08:54.296Z,4.30
2019-06-07T20:11:23.959Z,3.33
2019-06-07T20:13:54.477Z,2.30
2019-06-07T20:16:24.113Z,3.17
2019-06-07T20:18:53.692Z,1.30
2019-06-07T20:21:23.277Z,2.58
2019-06-07T20:23:52.925Z,2.70
2019-06-07T20:26:22.490Z,4.17
2019-06-07T20:28:52.090Z,2.83
2019-06-07T20:31:21.656Z,3.30
2019-06-07T20:33:51.247Z,2.15
2019-06-07T20:36:20.820Z,1.83
2019-06-07T20:38:50.462Z,2.90
2019-06-07T20:41:20.062Z,4.13
2019-06-07T20:43:49.652Z,6.23
2019-06-07T20:46:19.231Z,4.37
2019-06-07T20:48:48.804Z,3.23
2019-06-07T20:51:18.429Z,3.07
2019-06-07T20:53:48.458Z,3.20
2019-06-07T20:56:18.030Z,4.80
2019-06-07T20:58:48.416Z,3.35
2019-06-07T21:01:18.022Z,4.67
2019-06-07T21:03:48.434Z,2.08
2019-06-07T21:06:18.011Z,2.53
2019-06-07T21:08:48.364Z,3.17
2019-06-07T21:11:17.924Z,2.50
2019-06-07T21:13:48.439Z,1.70
2019-06-07T21:16:18.038Z,3.57
2019-06-07T21:18:48.482Z,1.77
2019-06-07T21:21:18.068Z,2.90
2019-06-07T21:23:48.468Z,2.03
2019-06-07T21:26:18.028Z,2.73
2019-06-07T21:28:48.382Z,3.37
2019-06-07T21:31:17.953Z,3.50
2019-06-07T21:33:48.494Z,3.10
2019-06-07T21:36:18.129Z,2.87
2019-06-07T21:38:48.464Z,2.40
2019-06-07T21:41:18.034Z,2.80
2019-06-07T21:43:48.472Z,2.70
2019-06-07T21:46:20.423Z,2.73
2019-06-07T21:48:49.327Z,4.13
2019-06-07T21:51:18.925Z,3.57
2019-06-07T21:53:48.503Z,4.83
2019-06-07T21:56:18.078Z,3.23
2019-06-07T21:58:48.501Z,3.00
2019-06-07T22:01:20.205Z,2.53
2019-06-07T22:03:49.907Z,2.50
2019-06-07T22:06:19.507Z,3.03
2019-06-07T22:08:49.101Z,1.87
2019-06-07T22:11:18.729Z,3.30
2019-06-07T22:13:48.513Z,2.90
2019-06-07T22:16:28.504Z,3.70
2019-06-07T22:18:49.664Z,2.77
2019-06-07T22:21:19.244Z,4.40
2019-06-07T22:23:48.833Z,1.60
2019-06-07T22:26:18.472Z,3.52
2019-06-07T22:28:48.496Z,1.83
2019-06-07T22:31:19.277Z,1.50
2019-06-07T22:33:49.021Z,1.70
2019-06-07T22:36:19.465Z,3.77
2019-06-07T22:38:49.253Z,2.10
2019-06-07T22:41:18.813Z,2.33
2019-06-07T22:43:48.648Z,2.97
2019-06-07T22:46:19.278Z,2.67
2019-06-07T22:48:49.039Z,2.83
2019-06-07T22:51:18.703Z,2.20
2019-06-07T22:53:48.498Z,3.37
2019-06-07T22:56:19.714Z,2.20
2019-06-07T22:58:49.281Z,2.13
2019-06-07T23:01:20.197Z,2.57
2019-06-07T23:03:49.937Z,1.17
2019-06-07T23:06:19.619Z,3.80
2019-06-07T23:08:49.224Z,1.80
2019-06-07T23:11:19.478Z,1.93
2019-06-07T23:13:49.157Z,3.07
2019-06-07T23:16:19.924Z,4.20
2019-06-07T23:18:49.747Z,2.33
2019-06-07T23:21:20.145Z,2.33
2019-06-07T23:23:49.913Z,2.07
2019-06-07T23:26:21.140Z,2.10
2019-06-07T23:28:51.518Z,8.03
2019-06-07T23:31:21.523Z,3.37
2019-06-07T23:33:51.446Z,3.13
2019-06-07T23:36:21.419Z,2.87
2019-06-07T23:38:51.021Z,2.00
2019-06-07T23:41:22.178Z,2.93
2019-06-07T23:43:51.973Z,1.87
2019-06-07T23:46:21.765Z,2.03
2019-06-07T23:48:51.469Z,1.67
2019-06-07T23:51:22.043Z,2.37
2019-06-07T23:53:51.786Z,3.60
2019-06-07T23:56:22.306Z,1.77
2019-06-07T23:58:52.203Z,3.97
